Denver, Colorado
Traffic Map
Current Weather Conditions
Denver, Colorado
Broken Clouds
Broken Clouds
50°
Feels Like: 50°
Wind Chill: 50° Ceiling: 1200
Heat Index: 50° Visibility: 15mi
Dew Point: 43° Wind: 0mph
Humidity: 76% Direction: ° ()
Pressure: 30.1in Gusts: 0mph
Raw Report DataKBJC 251852Z 00000KT 15SM BKN012 10/06 A3010
Traffic Incident Summary
Active as of:
Severity:
Category:
InformationThere was an issue retrieving the traffic information for this location. Please try a different location or try again shortly.
Advertisements